sensor_id;sensor_type;location;lat;lon;timestamp;P1;durP1;ratioP1;P2;durP2;ratioP2
7529;SDS011;3806;52.270;10.544;2022-12-19T00:01:09;11.90;;;6.45;;
7529;SDS011;3806;52.270;10.544;2022-12-19T00:03:49;8.40;;;5.63;;
7529;SDS011;3806;52.270;10.544;2022-12-19T00:06:17;8.13;;;5.13;;
7529;SDS011;3806;52.270;10.544;2022-12-19T00:08:44;10.77;;;5.97;;
7529;SDS011;3806;52.270;10.544;2022-12-19T00:11:12;12.18;;;5.53;;
7529;SDS011;3806;52.270;10.544;2022-12-19T00:13:39;10.73;;;5.80;;
7529;SDS011;3806;52.270;10.544;2022-12-19T00:16:06;11.30;;;6.32;;
7529;SDS011;3806;52.270;10.544;2022-12-19T00:18:43;8.80;;;5.15;;
7529;SDS011;3806;52.270;10.544;2022-12-19T00:21:11;10.80;;;6.18;;
7529;SDS011;3806;52.270;10.544;2022-12-19T00:23:40;10.75;;;5.78;;
7529;SDS011;3806;52.270;10.544;2022-12-19T00:26:10;8.35;;;5.03;;
7529;SDS011;3806;52.270;10.544;2022-12-19T00:28:37;10.63;;;5.15;;
7529;SDS011;3806;52.270;10.544;2022-12-19T00:31:03;9.55;;;5.63;;
7529;SDS011;3806;52.270;10.544;2022-12-19T00:33:29;10.45;;;5.97;;
7529;SDS011;3806;52.270;10.544;2022-12-19T00:36:02;11.35;;;6.18;;
7529;SDS011;3806;52.270;10.544;2022-12-19T00:38:29;11.23;;;5.68;;
7529;SDS011;3806;52.270;10.544;2022-12-19T00:41:04;6.95;;;5.10;;
7529;SDS011;3806;52.270;10.544;2022-12-19T00:43:34;10.80;;;6.13;;
7529;SDS011;3806;52.270;10.544;2022-12-19T00:46:01;9.20;;;5.65;;
7529;SDS011;3806;52.270;10.544;2022-12-19T00:48:31;9.88;;;6.07;;
7529;SDS011;3806;52.270;10.544;2022-12-19T00:51:00;8.55;;;5.03;;
7529;SDS011;3806;52.270;10.544;2022-12-19T00:53:27;10.95;;;5.75;;
7529;SDS011;3806;52.270;10.544;2022-12-19T00:55:53;13.50;;;6.22;;
7529;SDS011;3806;52.270;10.544;2022-12-19T00:58:19;10.88;;;6.35;;
7529;SDS011;3806;52.270;10.544;2022-12-19T01:00:45;11.05;;;5.40;;
7529;SDS011;3806;52.270;10.544;2022-12-19T01:03:10;8.35;;;5.15;;
7529;SDS011;3806;52.270;10.544;2022-12-19T01:05:36;8.70;;;5.68;;
7529;SDS011;3806;52.270;10.544;2022-12-19T01:08:02;10.02;;;5.57;;
7529;SDS011;3806;52.270;10.544;2022-12-19T01:10:27;8.77;;;5.30;;
7529;SDS011;3806;52.270;10.544;2022-12-19T01:12:53;12.27;;;5.63;;
7529;SDS011;3806;52.270;10.544;2022-12-19T01:15:19;10.68;;;5.00;;
7529;SDS011;3806;52.270;10.544;2022-12-19T01:17:46;8.73;;;5.22;;
7529;SDS011;3806;52.270;10.544;2022-12-19T01:20:13;10.05;;;5.57;;
7529;SDS011;3806;52.270;10.544;2022-12-19T01:22:40;11.15;;;5.65;;
7529;SDS011;3806;52.270;10.544;2022-12-19T01:25:06;9.85;;;5.72;;
7529;SDS011;3806;52.270;10.544;2022-12-19T01:27:32;10.85;;;6.10;;
7529;SDS011;3806;52.270;10.544;2022-12-19T01:29:58;8.60;;;4.65;;
7529;SDS011;3806;52.270;10.544;2022-12-19T01:32:23;11.18;;;5.68;;
7529;SDS011;3806;52.270;10.544;2022-12-19T01:34:49;9.52;;;5.88;;
7529;SDS011;3806;52.270;10.544;2022-12-19T01:37:14;9.82;;;5.82;;
7529;SDS011;3806;52.270;10.544;2022-12-19T01:39:40;8.38;;;5.68;;
7529;SDS011;3806;52.270;10.544;2022-12-19T01:42:12;9.00;;;5.60;;
7529;SDS011;3806;52.270;10.544;2022-12-19T01:47:26;10.20;;;5.78;;
7529;SDS011;3806;52.270;10.544;2022-12-19T01:49:53;9.23;;;5.30;;
7529;SDS011;3806;52.270;10.544;2022-12-19T01:52:19;8.57;;;5.60;;
7529;SDS011;3806;52.270;10.544;2022-12-19T01:54:45;11.77;;;5.88;;
7529;SDS011;3806;52.270;10.544;2022-12-19T01:57:12;8.27;;;5.07;;
7529;SDS011;3806;52.270;10.544;2022-12-19T01:59:41;9.40;;;5.55;;
7529;SDS011;3806;52.270;10.544;2022-12-19T02:02:11;6.82;;;5.07;;
7529;SDS011;3806;52.270;10.544;2022-12-19T02:05:01;10.32;;;4.88;;
7529;SDS011;3806;52.270;10.544;2022-12-19T02:07:28;8.20;;;4.60;;
7529;SDS011;3806;52.270;10.544;2022-12-19T02:09:56;9.68;;;5.00;;
7529;SDS011;3806;52.270;10.544;2022-12-19T02:12:25;9.13;;;4.47;;
7529;SDS011;3806;52.270;10.544;2022-12-19T02:14:53;9.05;;;5.30;;
7529;SDS011;3806;52.270;10.544;2022-12-19T02:17:33;9.27;;;5.07;;
7529;SDS011;3806;52.270;10.544;2022-12-19T02:23:00;10.27;;;6.03;;
7529;SDS011;3806;52.270;10.544;2022-12-19T02:36:35;12.82;;;6.03;;
7529;SDS011;3806;52.270;10.544;2022-12-19T02:39:10;8.38;;;5.13;;
7529;SDS011;3806;52.270;10.544;2022-12-19T02:42:16;7.57;;;5.57;;
7529;SDS011;3806;52.270;10.544;2022-12-19T02:44:49;9.52;;;5.53;;
7529;SDS011;3806;52.270;10.544;2022-12-19T02:47:17;8.02;;;5.57;;
7529;SDS011;3806;52.270;10.544;2022-12-19T02:49:45;9.02;;;5.00;;
7529;SDS011;3806;52.270;10.544;2022-12-19T02:52:11;10.95;;;5.57;;
7529;SDS011;3806;52.270;10.544;2022-12-19T02:54:42;9.77;;;4.57;;
7529;SDS011;3806;52.270;10.544;2022-12-19T03:10:42;9.25;;;5.38;;
7529;SDS011;3806;52.270;10.544;2022-12-19T03:13:13;7.65;;;4.97;;
7529;SDS011;3806;52.270;10.544;2022-12-19T03:15:45;10.38;;;6.45;;
7529;SDS011;3806;52.270;10.544;2022-12-19T03:18:11;9.98;;;5.13;;
7529;SDS011;3806;52.270;10.544;2022-12-19T03:23:27;9.82;;;5.88;;
7529;SDS011;3806;52.270;10.544;2022-12-19T03:25:53;9.25;;;4.97;;
7529;SDS011;3806;52.270;10.544;2022-12-19T03:28:25;9.30;;;4.88;;
7529;SDS011;3806;52.270;10.544;2022-12-19T03:30:57;8.60;;;4.35;;
7529;SDS011;3806;52.270;10.544;2022-12-19T03:33:23;9.32;;;5.07;;
7529;SDS011;3806;52.270;10.544;2022-12-19T03:35:51;9.82;;;5.75;;
7529;SDS011;3806;52.270;10.544;2022-12-19T03:38:18;8.98;;;4.65;;
7529;SDS011;3806;52.270;10.544;2022-12-19T03:40:44;9.43;;;5.05;;
7529;SDS011;3806;52.270;10.544;2022-12-19T03:43:11;8.00;;;6.28;;
7529;SDS011;3806;52.270;10.544;2022-12-19T03:48:25;8.43;;;5.13;;
7529;SDS011;3806;52.270;10.544;2022-12-19T03:53:48;10.52;;;5.93;;
7529;SDS011;3806;52.270;10.544;2022-12-19T04:01:57;8.65;;;5.47;;
7529;SDS011;3806;52.270;10.544;2022-12-19T04:04:23;9.02;;;4.93;;
7529;SDS011;3806;52.270;10.544;2022-12-19T04:06:50;8.57;;;5.43;;
7529;SDS011;3806;52.270;10.544;2022-12-19T04:09:18;9.20;;;5.43;;
7529;SDS011;3806;52.270;10.544;2022-12-19T04:11:48;11.05;;;5.22;;
7529;SDS011;3806;52.270;10.544;2022-12-19T04:14:19;11.05;;;5.50;;
7529;SDS011;3806;52.270;10.544;2022-12-19T04:17:00;8.65;;;5.40;;
7529;SDS011;3806;52.270;10.544;2022-12-19T04:22:21;9.80;;;5.60;;
7529;SDS011;3806;52.270;10.544;2022-12-19T04:24:57;8.05;;;4.63;;
7529;SDS011;3806;52.270;10.544;2022-12-19T04:27:25;7.45;;;5.03;;
7529;SDS011;3806;52.270;10.544;2022-12-19T04:29:53;11.45;;;5.38;;
7529;SDS011;3806;52.270;10.544;2022-12-19T04:32:21;8.55;;;4.85;;
7529;SDS011;3806;52.270;10.544;2022-12-19T04:34:49;7.97;;;5.25;;
7529;SDS011;3806;52.270;10.544;2022-12-19T04:37:14;10.30;;;4.88;;
7529;SDS011;3806;52.270;10.544;2022-12-19T04:39:40;10.43;;;5.50;;
7529;SDS011;3806;52.270;10.544;2022-12-19T04:42:06;8.98;;;5.15;;
7529;SDS011;3806;52.270;10.544;2022-12-19T04:44:32;8.00;;;4.30;;
7529;SDS011;3806;52.270;10.544;2022-12-19T04:46:57;7.10;;;5.05;;
7529;SDS011;3806;52.270;10.544;2022-12-19T04:49:23;7.97;;;5.47;;
7529;SDS011;3806;52.270;10.544;2022-12-19T04:51:48;8.63;;;4.85;;
7529;SDS011;3806;52.270;10.544;2022-12-19T04:54:14;8.57;;;4.53;;
7529;SDS011;3806;52.270;10.544;2022-12-19T04:56:39;6.93;;;4.60;;
7529;SDS011;3806;52.270;10.544;2022-12-19T04:59:05;8.30;;;5.13;;
7529;SDS011;3806;52.270;10.544;2022-12-19T05:01:30;10.35;;;5.28;;
7529;SDS011;3806;52.270;10.544;2022-12-19T05:03:56;8.45;;;5.20;;
7529;SDS011;3806;52.270;10.544;2022-12-19T05:06:22;10.90;;;5.65;;
7529;SDS011;3806;52.270;10.544;2022-12-19T05:08:48;8.02;;;5.40;;
7529;SDS011;3806;52.270;10.544;2022-12-19T05:11:14;9.68;;;5.38;;
7529;SDS011;3806;52.270;10.544;2022-12-19T05:13:40;6.45;;;4.25;;
7529;SDS011;3806;52.270;10.544;2022-12-19T05:16:07;11.73;;;4.80;;
7529;SDS011;3806;52.270;10.544;2022-12-19T05:18:34;8.07;;;4.97;;
7529;SDS011;3806;52.270;10.544;2022-12-19T05:21:01;9.13;;;5.32;;
7529;SDS011;3806;52.270;10.544;2022-12-19T05:23:26;8.23;;;4.55;;
7529;SDS011;3806;52.270;10.544;2022-12-19T05:25:52;10.48;;;5.05;;
7529;SDS011;3806;52.270;10.544;2022-12-19T05:28:21;9.20;;;5.03;;
7529;SDS011;3806;52.270;10.544;2022-12-19T05:30:46;8.50;;;4.30;;
7529;SDS011;3806;52.270;10.544;2022-12-19T05:33:12;9.00;;;4.63;;
7529;SDS011;3806;52.270;10.544;2022-12-19T05:35:38;8.43;;;4.50;;
7529;SDS011;3806;52.270;10.544;2022-12-19T05:38:04;7.10;;;4.60;;
7529;SDS011;3806;52.270;10.544;2022-12-19T05:40:30;6.75;;;4.45;;
7529;SDS011;3806;52.270;10.544;2022-12-19T05:42:55;8.50;;;4.97;;
7529;SDS011;3806;52.270;10.544;2022-12-19T05:45:21;8.57;;;5.15;;
7529;SDS011;3806;52.270;10.544;2022-12-19T05:47:47;8.73;;;4.55;;
7529;SDS011;3806;52.270;10.544;2022-12-19T05:50:13;7.75;;;5.10;;
7529;SDS011;3806;52.270;10.544;2022-12-19T05:52:40;9.98;;;5.10;;
7529;SDS011;3806;52.270;10.544;2022-12-19T05:55:06;9.18;;;4.80;;
7529;SDS011;3806;52.270;10.544;2022-12-19T05:57:32;8.63;;;4.22;;
7529;SDS011;3806;52.270;10.544;2022-12-19T05:59:58;7.05;;;4.05;;
7529;SDS011;3806;52.270;10.544;2022-12-19T06:02:24;8.30;;;4.65;;
7529;SDS011;3806;52.270;10.544;2022-12-19T06:04:50;10.15;;;4.68;;
7529;SDS011;3806;52.270;10.544;2022-12-19T06:07:15;8.07;;;4.75;;
7529;SDS011;3806;52.270;10.544;2022-12-19T06:09:41;8.05;;;5.05;;
7529;SDS011;3806;52.270;10.544;2022-12-19T06:12:07;8.25;;;5.35;;
7529;SDS011;3806;52.270;10.544;2022-12-19T06:14:32;10.93;;;5.75;;
7529;SDS011;3806;52.270;10.544;2022-12-19T06:16:58;8.77;;;4.70;;
7529;SDS011;3806;52.270;10.544;2022-12-19T06:19:24;10.88;;;4.57;;
7529;SDS011;3806;52.270;10.544;2022-12-19T06:21:49;10.32;;;4.78;;
7529;SDS011;3806;52.270;10.544;2022-12-19T06:24:15;8.38;;;4.95;;
7529;SDS011;3806;52.270;10.544;2022-12-19T06:26:41;9.68;;;5.18;;
7529;SDS011;3806;52.270;10.544;2022-12-19T06:29:07;8.93;;;5.07;;
7529;SDS011;3806;52.270;10.544;2022-12-19T06:31:32;12.93;;;6.07;;
7529;SDS011;3806;52.270;10.544;2022-12-19T06:33:58;8.32;;;5.65;;
7529;SDS011;3806;52.270;10.544;2022-12-19T06:36:25;8.88;;;5.38;;
7529;SDS011;3806;52.270;10.544;2022-12-19T06:38:52;8.10;;;4.72;;
7529;SDS011;3806;52.270;10.544;2022-12-19T06:41:19;7.85;;;4.93;;
7529;SDS011;3806;52.270;10.544;2022-12-19T06:44:04;10.52;;;5.80;;
7529;SDS011;3806;52.270;10.544;2022-12-19T06:46:31;8.27;;;4.80;;
7529;SDS011;3806;52.270;10.544;2022-12-19T06:48:57;9.43;;;4.95;;
7529;SDS011;3806;52.270;10.544;2022-12-19T06:51:23;8.32;;;4.60;;
7529;SDS011;3806;52.270;10.544;2022-12-19T06:53:49;7.97;;;4.20;;
7529;SDS011;3806;52.270;10.544;2022-12-19T06:56:15;6.97;;;4.18;;
7529;SDS011;3806;52.270;10.544;2022-12-19T06:58:41;8.35;;;4.47;;
7529;SDS011;3806;52.270;10.544;2022-12-19T07:01:11;9.85;;;4.47;;
7529;SDS011;3806;52.270;10.544;2022-12-19T07:03:57;9.68;;;4.53;;
7529;SDS011;3806;52.270;10.544;2022-12-19T07:06:23;11.13;;;4.68;;
7529;SDS011;3806;52.270;10.544;2022-12-19T07:08:48;7.72;;;5.28;;
7529;SDS011;3806;52.270;10.544;2022-12-19T07:11:14;9.80;;;4.82;;
7529;SDS011;3806;52.270;10.544;2022-12-19T07:13:39;7.78;;;4.45;;
7529;SDS011;3806;52.270;10.544;2022-12-19T07:16:05;8.38;;;4.97;;
7529;SDS011;3806;52.270;10.544;2022-12-19T07:18:33;8.05;;;5.28;;
7529;SDS011;3806;52.270;10.544;2022-12-19T07:21:01;11.68;;;6.65;;
7529;SDS011;3806;52.270;10.544;2022-12-19T07:23:28;8.80;;;5.18;;
7529;SDS011;3806;52.270;10.544;2022-12-19T07:25:54;8.27;;;4.32;;
7529;SDS011;3806;52.270;10.544;2022-12-19T07:28:20;7.60;;;4.50;;
7529;SDS011;3806;52.270;10.544;2022-12-19T07:30:45;9.43;;;4.60;;
7529;SDS011;3806;52.270;10.544;2022-12-19T07:33:11;8.52;;;5.35;;
7529;SDS011;3806;52.270;10.544;2022-12-19T07:35:36;7.82;;;4.70;;
7529;SDS011;3806;52.270;10.544;2022-12-19T07:38:03;9.00;;;5.07;;
7529;SDS011;3806;52.270;10.544;2022-12-19T07:40:29;8.25;;;4.70;;
7529;SDS011;3806;52.270;10.544;2022-12-19T07:42:59;9.80;;;5.45;;
7529;SDS011;3806;52.270;10.544;2022-12-19T07:45:25;9.43;;;4.57;;
7529;SDS011;3806;52.270;10.544;2022-12-19T07:47:51;8.05;;;5.28;;
7529;SDS011;3806;52.270;10.544;2022-12-19T07:50:17;8.45;;;4.72;;
7529;SDS011;3806;52.270;10.544;2022-12-19T07:52:43;11.95;;;5.05;;
7529;SDS011;3806;52.270;10.544;2022-12-19T07:55:08;7.32;;;4.40;;
7529;SDS011;3806;52.270;10.544;2022-12-19T07:57:34;10.52;;;5.20;;
7529;SDS011;3806;52.270;10.544;2022-12-19T08:00:00;8.35;;;5.35;;
7529;SDS011;3806;52.270;10.544;2022-12-19T08:02:25;11.75;;;6.15;;
7529;SDS011;3806;52.270;10.544;2022-12-19T08:04:51;8.32;;;4.70;;
7529;SDS011;3806;52.270;10.544;2022-12-19T08:07:16;9.77;;;5.28;;
7529;SDS011;3806;52.270;10.544;2022-12-19T08:09:42;11.05;;;5.25;;
7529;SDS011;3806;52.270;10.544;2022-12-19T08:12:08;10.80;;;5.88;;
7529;SDS011;3806;52.270;10.544;2022-12-19T08:14:34;8.57;;;5.63;;
7529;SDS011;3806;52.270;10.544;2022-12-19T08:17:00;8.98;;;4.95;;
7529;SDS011;3806;52.270;10.544;2022-12-19T08:19:25;9.05;;;5.45;;
7529;SDS011;3806;52.270;10.544;2022-12-19T08:21:51;10.23;;;5.47;;
7529;SDS011;3806;52.270;10.544;2022-12-19T08:24:17;8.65;;;4.60;;
7529;SDS011;3806;52.270;10.544;2022-12-19T08:26:42;10.52;;;5.45;;
7529;SDS011;3806;52.270;10.544;2022-12-19T08:29:08;10.32;;;5.53;;
7529;SDS011;3806;52.270;10.544;2022-12-19T08:31:34;11.38;;;5.80;;
7529;SDS011;3806;52.270;10.544;2022-12-19T08:34:00;10.43;;;6.53;;
7529;SDS011;3806;52.270;10.544;2022-12-19T08:36:26;12.40;;;5.93;;
7529;SDS011;3806;52.270;10.544;2022-12-19T08:38:51;9.15;;;4.70;;
7529;SDS011;3806;52.270;10.544;2022-12-19T08:41:17;8.02;;;5.40;;
7529;SDS011;3806;52.270;10.544;2022-12-19T08:43:47;13.93;;;6.97;;
7529;SDS011;3806;52.270;10.544;2022-12-19T08:46:14;12.65;;;5.65;;
7529;SDS011;3806;52.270;10.544;2022-12-19T08:48:41;11.50;;;6.10;;
7529;SDS011;3806;52.270;10.544;2022-12-19T08:51:07;10.95;;;5.85;;
7529;SDS011;3806;52.270;10.544;2022-12-19T08:53:35;11.93;;;5.93;;
7529;SDS011;3806;52.270;10.544;2022-12-19T08:56:03;11.32;;;6.20;;
7529;SDS011;3806;52.270;10.544;2022-12-19T08:58:35;12.77;;;7.00;;
7529;SDS011;3806;52.270;10.544;2022-12-19T09:01:02;12.80;;;6.65;;
7529;SDS011;3806;52.270;10.544;2022-12-19T09:03:29;14.00;;;7.45;;
7529;SDS011;3806;52.270;10.544;2022-12-19T09:05:58;10.70;;;6.63;;
7529;SDS011;3806;52.270;10.544;2022-12-19T09:08:26;13.45;;;7.45;;
7529;SDS011;3806;52.270;10.544;2022-12-19T09:11:03;13.82;;;6.50;;
7529;SDS011;3806;52.270;10.544;2022-12-19T09:13:33;17.75;;;7.93;;
7529;SDS011;3806;52.270;10.544;2022-12-19T09:16:10;12.48;;;6.00;;
7529;SDS011;3806;52.270;10.544;2022-12-19T09:18:41;11.63;;;6.78;;
7529;SDS011;3806;52.270;10.544;2022-12-19T09:21:08;11.68;;;7.50;;
7529;SDS011;3806;52.270;10.544;2022-12-19T09:23:34;9.40;;;6.30;;
7529;SDS011;3806;52.270;10.544;2022-12-19T09:26:10;11.52;;;5.57;;
7529;SDS011;3806;52.270;10.544;2022-12-19T09:28:37;13.68;;;6.95;;
7529;SDS011;3806;52.270;10.544;2022-12-19T09:31:05;9.48;;;5.25;;
7529;SDS011;3806;52.270;10.544;2022-12-19T09:33:34;10.27;;;5.65;;
7529;SDS011;3806;52.270;10.544;2022-12-19T09:36:00;11.35;;;5.22;;
7529;SDS011;3806;52.270;10.544;2022-12-19T09:38:27;11.05;;;5.22;;
7529;SDS011;3806;52.270;10.544;2022-12-19T09:46:19;8.93;;;4.50;;
7529;SDS011;3806;52.270;10.544;2022-12-19T09:48:59;10.23;;;5.18;;
7529;SDS011;3806;52.270;10.544;2022-12-19T09:51:50;7.70;;;4.05;;
7529;SDS011;3806;52.270;10.544;2022-12-19T09:57:15;7.03;;;4.25;;
7529;SDS011;3806;52.270;10.544;2022-12-19T09:59:45;10.45;;;4.40;;
7529;SDS011;3806;52.270;10.544;2022-12-19T10:02:39;10.30;;;4.90;;
7529;SDS011;3806;52.270;10.544;2022-12-19T10:07:39;7.63;;;5.13;;
7529;SDS011;3806;52.270;10.544;2022-12-19T10:10:05;8.07;;;3.70;;
7529;SDS011;3806;52.270;10.544;2022-12-19T10:12:52;7.05;;;4.55;;
7529;SDS011;3806;52.270;10.544;2022-12-19T10:18:25;9.45;;;4.90;;
7529;SDS011;3806;52.270;10.544;2022-12-19T10:24:00;8.05;;;4.32;;
7529;SDS011;3806;52.270;10.544;2022-12-19T10:32:05;7.80;;;4.18;;
7529;SDS011;3806;52.270;10.544;2022-12-19T10:34:42;7.25;;;4.45;;
7529;SDS011;3806;52.270;10.544;2022-12-19T10:37:18;9.35;;;5.10;;
7529;SDS011;3806;52.270;10.544;2022-12-19T10:43:05;7.47;;;4.97;;
7529;SDS011;3806;52.270;10.544;2022-12-19T10:45:41;7.75;;;4.90;;
7529;SDS011;3806;52.270;10.544;2022-12-19T10:48:19;8.77;;;4.95;;
7529;SDS011;3806;52.270;10.544;2022-12-19T10:50:46;10.48;;;5.40;;
7529;SDS011;3806;52.270;10.544;2022-12-19T10:53:12;9.48;;;5.78;;
7529;SDS011;3806;52.270;10.544;2022-12-19T10:55:41;9.65;;;5.47;;
7529;SDS011;3806;52.270;10.544;2022-12-19T10:58:16;9.82;;;5.43;;
7529;SDS011;3806;52.270;10.544;2022-12-19T11:03:38;11.15;;;6.35;;
7529;SDS011;3806;52.270;10.544;2022-12-19T11:11:57;13.07;;;6.65;;
7529;SDS011;3806;52.270;10.544;2022-12-19T11:14:28;11.45;;;7.18;;
7529;SDS011;3806;52.270;10.544;2022-12-19T11:16:55;12.45;;;7.10;;
7529;SDS011;3806;52.270;10.544;2022-12-19T11:19:37;13.60;;;6.60;;
7529;SDS011;3806;52.270;10.544;2022-12-19T11:22:04;13.43;;;7.05;;
7529;SDS011;3806;52.270;10.544;2022-12-19T11:24:35;18.95;;;7.63;;
7529;SDS011;3806;52.270;10.544;2022-12-19T11:27:50;11.52;;;6.63;;
7529;SDS011;3806;52.270;10.544;2022-12-19T11:29:56;11.73;;;6.60;;
7529;SDS011;3806;52.270;10.544;2022-12-19T11:32:28;12.48;;;6.82;;
7529;SDS011;3806;52.270;10.544;2022-12-19T11:35:04;13.20;;;6.68;;
7529;SDS011;3806;52.270;10.544;2022-12-19T11:37:51;14.27;;;7.57;;
7529;SDS011;3806;52.270;10.544;2022-12-19T11:40:37;13.23;;;7.55;;
7529;SDS011;3806;52.270;10.544;2022-12-19T11:48:48;13.82;;;9.90;;
7529;SDS011;3806;52.270;10.544;2022-12-19T11:51:29;17.10;;;9.45;;
7529;SDS011;3806;52.270;10.544;2022-12-19T12:04:46;11.50;;;7.63;;
7529;SDS011;3806;52.270;10.544;2022-12-19T12:07:36;17.40;;;8.20;;
7529;SDS011;3806;52.270;10.544;2022-12-19T12:10:12;15.10;;;8.52;;
7529;SDS011;3806;52.270;10.544;2022-12-19T12:15:31;16.00;;;7.93;;
7529;SDS011;3806;52.270;10.544;2022-12-19T12:18:19;15.50;;;7.88;;
7529;SDS011;3806;52.270;10.544;2022-12-19T12:21:21;15.50;;;8.25;;
7529;SDS011;3806;52.270;10.544;2022-12-19T12:29:16;13.83;;;7.50;;
7529;SDS011;3806;52.270;10.544;2022-12-19T12:31:58;13.15;;;7.25;;
7529;SDS011;3806;52.270;10.544;2022-12-19T12:34:52;13.85;;;7.70;;
7529;SDS011;3806;52.270;10.544;2022-12-19T12:40:16;14.43;;;7.43;;
7529;SDS011;3806;52.270;10.544;2022-12-19T12:46:03;12.95;;;7.43;;
7529;SDS011;3806;52.270;10.544;2022-12-19T12:48:32;14.43;;;7.43;;
7529;SDS011;3806;52.270;10.544;2022-12-19T12:51:02;13.40;;;7.53;;
7529;SDS011;3806;52.270;10.544;2022-12-19T12:53:39;16.50;;;7.18;;
7529;SDS011;3806;52.270;10.544;2022-12-19T12:56:09;14.13;;;7.22;;
7529;SDS011;3806;52.270;10.544;2022-12-19T13:06:32;16.60;;;7.95;;
7529;SDS011;3806;52.270;10.544;2022-12-19T13:17:06;11.80;;;6.53;;
7529;SDS011;3806;52.270;10.544;2022-12-19T13:19:51;13.15;;;7.38;;
7529;SDS011;3806;52.270;10.544;2022-12-19T13:22:22;11.38;;;6.97;;
7529;SDS011;3806;52.270;10.544;2022-12-19T13:25:26;15.32;;;6.90;;
7529;SDS011;3806;52.270;10.544;2022-12-19T13:27:57;13.07;;;6.43;;
7529;SDS011;3806;52.270;10.544;2022-12-19T13:31:11;11.93;;;6.65;;
7529;SDS011;3806;52.270;10.544;2022-12-19T13:34:09;13.27;;;7.47;;
7529;SDS011;3806;52.270;10.544;2022-12-19T13:39:23;14.10;;;6.97;;
7529;SDS011;3806;52.270;10.544;2022-12-19T13:42:06;13.00;;;6.40;;
7529;SDS011;3806;52.270;10.544;2022-12-19T13:44:59;11.45;;;6.97;;
7529;SDS011;3806;52.270;10.544;2022-12-19T13:47:30;15.98;;;7.70;;
7529;SDS011;3806;52.270;10.544;2022-12-19T13:49:59;13.18;;;7.30;;
7529;SDS011;3806;52.270;10.544;2022-12-19T13:52:30;11.85;;;6.50;;
7529;SDS011;3806;52.270;10.544;2022-12-19T13:54:56;13.52;;;6.88;;
7529;SDS011;3806;52.270;10.544;2022-12-19T13:59:54;12.55;;;6.40;;
7529;SDS011;3806;52.270;10.544;2022-12-19T14:02:25;14.70;;;7.53;;
7529;SDS011;3806;52.270;10.544;2022-12-19T14:04:59;13.90;;;7.15;;
7529;SDS011;3806;52.270;10.544;2022-12-19T14:07:31;15.15;;;7.20;;
7529;SDS011;3806;52.270;10.544;2022-12-19T14:09:58;11.85;;;6.55;;
7529;SDS011;3806;52.270;10.544;2022-12-19T14:12:27;10.40;;;6.60;;
7529;SDS011;3806;52.270;10.544;2022-12-19T14:15:25;12.70;;;6.68;;
7529;SDS011;3806;52.270;10.544;2022-12-19T14:17:54;11.90;;;7.07;;
7529;SDS011;3806;52.270;10.544;2022-12-19T14:20:23;10.02;;;5.28;;
7529;SDS011;3806;52.270;10.544;2022-12-19T14:22:55;12.02;;;6.65;;
7529;SDS011;3806;52.270;10.544;2022-12-19T14:25:31;14.77;;;6.05;;
7529;SDS011;3806;52.270;10.544;2022-12-19T14:28:02;12.82;;;6.90;;
7529;SDS011;3806;52.270;10.544;2022-12-19T14:30:32;12.23;;;6.90;;
7529;SDS011;3806;52.270;10.544;2022-12-19T14:33:08;12.70;;;7.25;;
7529;SDS011;3806;52.270;10.544;2022-12-19T14:35:44;12.13;;;6.85;;
7529;SDS011;3806;52.270;10.544;2022-12-19T14:38:14;12.25;;;6.53;;
7529;SDS011;3806;52.270;10.544;2022-12-19T14:40:43;14.30;;;7.25;;
7529;SDS011;3806;52.270;10.544;2022-12-19T14:43:24;11.88;;;6.60;;
7529;SDS011;3806;52.270;10.544;2022-12-19T14:51:18;16.15;;;8.00;;
7529;SDS011;3806;52.270;10.544;2022-12-19T14:54:04;12.00;;;6.95;;
7529;SDS011;3806;52.270;10.544;2022-12-19T15:04:31;15.63;;;7.88;;
7529;SDS011;3806;52.270;10.544;2022-12-19T15:07:06;14.07;;;7.35;;
7529;SDS011;3806;52.270;10.544;2022-12-19T15:09:41;11.15;;;6.75;;
7529;SDS011;3806;52.270;10.544;2022-12-19T15:12:15;13.00;;;6.93;;
7529;SDS011;3806;52.270;10.544;2022-12-19T15:15:24;9.82;;;6.03;;
7529;SDS011;3806;52.270;10.544;2022-12-19T15:18:01;11.60;;;6.45;;
7529;SDS011;3806;52.270;10.544;2022-12-19T15:20:40;14.02;;;7.10;;
7529;SDS011;3806;52.270;10.544;2022-12-19T15:23:05;12.35;;;6.90;;
7529;SDS011;3806;52.270;10.544;2022-12-19T15:25:31;12.63;;;6.82;;
7529;SDS011;3806;52.270;10.544;2022-12-19T15:27:56;14.02;;;6.22;;
7529;SDS011;3806;52.270;10.544;2022-12-19T15:30:22;11.60;;;6.55;;
7529;SDS011;3806;52.270;10.544;2022-12-19T15:32:48;11.23;;;6.50;;
7529;SDS011;3806;52.270;10.544;2022-12-19T15:35:14;13.20;;;5.75;;
7529;SDS011;3806;52.270;10.544;2022-12-19T15:37:42;13.55;;;6.45;;
7529;SDS011;3806;52.270;10.544;2022-12-19T15:40:12;10.18;;;5.57;;
7529;SDS011;3806;52.270;10.544;2022-12-19T15:42:39;11.98;;;6.13;;
7529;SDS011;3806;52.270;10.544;2022-12-19T15:45:10;16.67;;;7.55;;
7529;SDS011;3806;52.270;10.544;2022-12-19T15:47:38;13.13;;;7.05;;
7529;SDS011;3806;52.270;10.544;2022-12-19T15:50:18;11.27;;;6.32;;
7529;SDS011;3806;52.270;10.544;2022-12-19T15:52:48;13.13;;;7.50;;
7529;SDS011;3806;52.270;10.544;2022-12-19T15:55:18;12.95;;;5.95;;
7529;SDS011;3806;52.270;10.544;2022-12-19T15:57:47;11.70;;;7.30;;
7529;SDS011;3806;52.270;10.544;2022-12-19T16:00:17;14.57;;;7.65;;
7529;SDS011;3806;52.270;10.544;2022-12-19T16:02:52;11.30;;;6.57;;
7529;SDS011;3806;52.270;10.544;2022-12-19T16:05:19;11.43;;;6.90;;
7529;SDS011;3806;52.270;10.544;2022-12-19T16:07:46;12.90;;;6.47;;
7529;SDS011;3806;52.270;10.544;2022-12-19T16:10:12;14.80;;;6.75;;
7529;SDS011;3806;52.270;10.544;2022-12-19T16:12:40;11.48;;;6.65;;
7529;SDS011;3806;52.270;10.544;2022-12-19T16:15:35;13.90;;;6.60;;
7529;SDS011;3806;52.270;10.544;2022-12-19T16:18:03;10.65;;;6.70;;
7529;SDS011;3806;52.270;10.544;2022-12-19T16:20:30;10.30;;;6.70;;
7529;SDS011;3806;52.270;10.544;2022-12-19T16:22:58;12.48;;;5.85;;
7529;SDS011;3806;52.270;10.544;2022-12-19T16:25:27;12.63;;;6.88;;
7529;SDS011;3806;52.270;10.544;2022-12-19T16:28:01;12.75;;;6.55;;
7529;SDS011;3806;52.270;10.544;2022-12-19T16:30:29;12.23;;;6.30;;
7529;SDS011;3806;52.270;10.544;2022-12-19T16:32:56;15.57;;;7.40;;
7529;SDS011;3806;52.270;10.544;2022-12-19T16:35:22;10.32;;;7.05;;
7529;SDS011;3806;52.270;10.544;2022-12-19T16:37:49;12.55;;;7.78;;
7529;SDS011;3806;52.270;10.544;2022-12-19T16:42:42;11.60;;;6.38;;
7529;SDS011;3806;52.270;10.544;2022-12-19T16:45:19;12.65;;;6.43;;
7529;SDS011;3806;52.270;10.544;2022-12-19T16:47:47;11.48;;;6.72;;
7529;SDS011;3806;52.270;10.544;2022-12-19T16:50:14;12.38;;;6.97;;
7529;SDS011;3806;52.270;10.544;2022-12-19T16:52:46;11.73;;;6.97;;
7529;SDS011;3806;52.270;10.544;2022-12-19T16:55:13;11.30;;;7.03;;
7529;SDS011;3806;52.270;10.544;2022-12-19T16:57:39;14.00;;;6.32;;
7529;SDS011;3806;52.270;10.544;2022-12-19T17:00:06;10.43;;;6.55;;
7529;SDS011;3806;52.270;10.544;2022-12-19T17:05:30;12.10;;;6.05;;
7529;SDS011;3806;52.270;10.544;2022-12-19T17:07:56;12.40;;;5.65;;
7529;SDS011;3806;52.270;10.544;2022-12-19T17:10:26;11.23;;;6.47;;
7529;SDS011;3806;52.270;10.544;2022-12-19T17:12:55;11.70;;;6.40;;
7529;SDS011;3806;52.270;10.544;2022-12-19T17:15:55;8.23;;;5.53;;
7529;SDS011;3806;52.270;10.544;2022-12-19T17:18:15;8.23;;;5.90;;
7529;SDS011;3806;52.270;10.544;2022-12-19T17:20:46;8.30;;;5.88;;
7529;SDS011;3806;52.270;10.544;2022-12-19T17:25:39;11.98;;;5.88;;
7529;SDS011;3806;52.270;10.544;2022-12-19T17:28:05;10.00;;;6.00;;
7529;SDS011;3806;52.270;10.544;2022-12-19T17:30:31;11.30;;;5.47;;
7529;SDS011;3806;52.270;10.544;2022-12-19T17:32:59;11.05;;;7.43;;
7529;SDS011;3806;52.270;10.544;2022-12-19T17:35:25;12.75;;;6.80;;
7529;SDS011;3806;52.270;10.544;2022-12-19T17:37:54;13.02;;;6.13;;
7529;SDS011;3806;52.270;10.544;2022-12-19T17:40:21;12.02;;;5.68;;
7529;SDS011;3806;52.270;10.544;2022-12-19T17:42:50;10.07;;;5.57;;
7529;SDS011;3806;52.270;10.544;2022-12-19T17:45:16;12.57;;;6.25;;